sensor_id;sensor_type;location;lat;lon;timestamp;P1;durP1;ratioP1;P2;durP2;ratioP2
12412;SDS011;13877;18.896;-99.222;2023-05-07T00:00:37;42.05;;;19.85;;
12412;SDS011;13877;18.896;-99.222;2023-05-07T00:03:04;40.33;;;20.70;;
12412;SDS011;13877;18.896;-99.222;2023-05-07T00:05:31;32.47;;;18.35;;
12412;SDS011;13877;18.896;-99.222;2023-05-07T00:07:58;34.13;;;19.55;;
12412;SDS011;13877;18.896;-99.222;2023-05-07T00:10:28;49.90;;;20.38;;
12412;SDS011;13877;18.896;-99.222;2023-05-07T00:12:55;35.38;;;18.92;;
12412;SDS011;13877;18.896;-99.222;2023-05-07T00:15:22;37.80;;;20.63;;
12412;SDS011;13877;18.896;-99.222;2023-05-07T00:17:49;36.17;;;20.42;;
12412;SDS011;13877;18.896;-99.222;2023-05-07T00:20:15;40.15;;;20.33;;
12412;SDS011;13877;18.896;-99.222;2023-05-07T00:22:42;44.15;;;21.13;;
12412;SDS011;13877;18.896;-99.222;2023-05-07T00:25:09;36.47;;;20.65;;
12412;SDS011;13877;18.896;-99.222;2023-05-07T00:27:36;41.22;;;19.42;;
12412;SDS011;13877;18.896;-99.222;2023-05-07T00:30:03;36.35;;;19.92;;
12412;SDS011;13877;18.896;-99.222;2023-05-07T00:32:31;38.90;;;20.23;;
12412;SDS011;13877;18.896;-99.222;2023-05-07T00:34:57;37.85;;;21.08;;
12412;SDS011;13877;18.896;-99.222;2023-05-07T00:37:25;42.85;;;22.10;;
12412;SDS011;13877;18.896;-99.222;2023-05-07T00:39:51;40.92;;;21.88;;
12412;SDS011;13877;18.896;-99.222;2023-05-07T00:42:18;42.28;;;22.02;;
12412;SDS011;13877;18.896;-99.222;2023-05-07T00:44:46;42.50;;;21.60;;
12412;SDS011;13877;18.896;-99.222;2023-05-07T00:47:13;39.78;;;22.35;;
12412;SDS011;13877;18.896;-99.222;2023-05-07T00:49:44;51.38;;;22.92;;
12412;SDS011;13877;18.896;-99.222;2023-05-07T00:52:13;37.33;;;20.75;;
12412;SDS011;13877;18.896;-99.222;2023-05-07T00:54:42;37.83;;;21.90;;
12412;SDS011;13877;18.896;-99.222;2023-05-07T00:57:10;41.17;;;22.33;;
12412;SDS011;13877;18.896;-99.222;2023-05-07T00:59:37;36.65;;;21.67;;
12412;SDS011;13877;18.896;-99.222;2023-05-07T01:02:06;41.17;;;23.80;;
12412;SDS011;13877;18.896;-99.222;2023-05-07T01:04:33;55.08;;;24.58;;
12412;SDS011;13877;18.896;-99.222;2023-05-07T01:07:00;49.47;;;24.40;;
12412;SDS011;13877;18.896;-99.222;2023-05-07T01:09:28;64.22;;;25.92;;
12412;SDS011;13877;18.896;-99.222;2023-05-07T01:11:56;51.28;;;26.77;;
12412;SDS011;13877;18.896;-99.222;2023-05-07T01:14:24;54.92;;;26.95;;
12412;SDS011;13877;18.896;-99.222;2023-05-07T01:16:52;54.05;;;26.75;;
12412;SDS011;13877;18.896;-99.222;2023-05-07T01:19:21;63.95;;;26.48;;
12412;SDS011;13877;18.896;-99.222;2023-05-07T01:21:48;47.33;;;25.52;;
12412;SDS011;13877;18.896;-99.222;2023-05-07T01:24:18;48.17;;;25.00;;
12412;SDS011;13877;18.896;-99.222;2023-05-07T01:26:45;55.85;;;25.33;;
12412;SDS011;13877;18.896;-99.222;2023-05-07T01:29:15;52.55;;;24.92;;
12412;SDS011;13877;18.896;-99.222;2023-05-07T01:31:43;42.97;;;24.90;;
12412;SDS011;13877;18.896;-99.222;2023-05-07T01:34:10;39.67;;;24.95;;
12412;SDS011;13877;18.896;-99.222;2023-05-07T01:36:38;49.00;;;25.73;;
12412;SDS011;13877;18.896;-99.222;2023-05-07T01:39:08;44.50;;;26.33;;
12412;SDS011;13877;18.896;-99.222;2023-05-07T01:41:36;41.35;;;24.60;;
12412;SDS011;13877;18.896;-99.222;2023-05-07T01:44:04;49.92;;;26.42;;
12412;SDS011;13877;18.896;-99.222;2023-05-07T01:46:32;52.50;;;26.60;;
12412;SDS011;13877;18.896;-99.222;2023-05-07T01:49:00;49.42;;;27.02;;
12412;SDS011;13877;18.896;-99.222;2023-05-07T01:51:27;54.78;;;28.48;;
12412;SDS011;13877;18.896;-99.222;2023-05-07T01:53:55;53.60;;;29.75;;
12412;SDS011;13877;18.896;-99.222;2023-05-07T01:56:21;67.63;;;33.70;;
12412;SDS011;13877;18.896;-99.222;2023-05-07T01:58:49;58.22;;;33.15;;
12412;SDS011;13877;18.896;-99.222;2023-05-07T02:01:17;84.10;;;37.10;;
12412;SDS011;13877;18.896;-99.222;2023-05-07T02:03:44;79.13;;;40.45;;
12412;SDS011;13877;18.896;-99.222;2023-05-07T02:06:19;76.60;;;41.42;;
12412;SDS011;13877;18.896;-99.222;2023-05-07T02:08:47;85.72;;;43.75;;
12412;SDS011;13877;18.896;-99.222;2023-05-07T02:11:15;88.93;;;43.65;;
12412;SDS011;13877;18.896;-99.222;2023-05-07T02:13:42;97.05;;;45.97;;
12412;SDS011;13877;18.896;-99.222;2023-05-07T02:16:09;92.70;;;46.60;;
12412;SDS011;13877;18.896;-99.222;2023-05-07T02:18:37;80.93;;;40.22;;
12412;SDS011;13877;18.896;-99.222;2023-05-07T02:21:04;71.40;;;32.88;;
12412;SDS011;13877;18.896;-99.222;2023-05-07T02:23:31;67.60;;;31.98;;
12412;SDS011;13877;18.896;-99.222;2023-05-07T02:25:59;55.83;;;29.70;;
12412;SDS011;13877;18.896;-99.222;2023-05-07T02:28:26;71.50;;;27.42;;
12412;SDS011;13877;18.896;-99.222;2023-05-07T02:31:04;59.90;;;28.00;;
12412;SDS011;13877;18.896;-99.222;2023-05-07T02:33:32;66.25;;;28.52;;
12412;SDS011;13877;18.896;-99.222;2023-05-07T02:36:05;58.57;;;30.07;;
12412;SDS011;13877;18.896;-99.222;2023-05-07T02:38:37;51.25;;;27.85;;
12412;SDS011;13877;18.896;-99.222;2023-05-07T02:41:04;56.40;;;29.30;;
12412;SDS011;13877;18.896;-99.222;2023-05-07T02:43:32;61.03;;;29.70;;
12412;SDS011;13877;18.896;-99.222;2023-05-07T02:46:06;63.58;;;34.80;;
12412;SDS011;13877;18.896;-99.222;2023-05-07T02:48:37;61.90;;;31.95;;
12412;SDS011;13877;18.896;-99.222;2023-05-07T02:51:05;78.63;;;33.72;;
12412;SDS011;13877;18.896;-99.222;2023-05-07T02:53:32;64.93;;;32.35;;
12412;SDS011;13877;18.896;-99.222;2023-05-07T02:56:00;58.25;;;30.45;;
12412;SDS011;13877;18.896;-99.222;2023-05-07T02:58:28;58.38;;;22.83;;
12412;SDS011;13877;18.896;-99.222;2023-05-07T03:00:55;52.33;;;20.50;;
12412;SDS011;13877;18.896;-99.222;2023-05-07T03:03:31;45.22;;;22.52;;
12412;SDS011;13877;18.896;-99.222;2023-05-07T03:05:58;52.95;;;20.50;;
12412;SDS011;13877;18.896;-99.222;2023-05-07T03:08:25;45.95;;;20.63;;
12412;SDS011;13877;18.896;-99.222;2023-05-07T03:10:52;37.38;;;20.20;;
12412;SDS011;13877;18.896;-99.222;2023-05-07T03:13:19;50.58;;;19.02;;
12412;SDS011;13877;18.896;-99.222;2023-05-07T03:15:47;51.50;;;21.30;;
12412;SDS011;13877;18.896;-99.222;2023-05-07T03:18:14;37.42;;;18.98;;
12412;SDS011;13877;18.896;-99.222;2023-05-07T03:20:41;45.30;;;21.27;;
12412;SDS011;13877;18.896;-99.222;2023-05-07T03:23:08;67.43;;;21.42;;
12412;SDS011;13877;18.896;-99.222;2023-05-07T03:25:35;54.42;;;23.80;;
12412;SDS011;13877;18.896;-99.222;2023-05-07T03:28:02;57.55;;;22.77;;
12412;SDS011;13877;18.896;-99.222;2023-05-07T03:30:45;51.85;;;20.42;;
12412;SDS011;13877;18.896;-99.222;2023-05-07T03:33:12;41.38;;;18.50;;
12412;SDS011;13877;18.896;-99.222;2023-05-07T03:35:39;41.65;;;18.30;;
12412;SDS011;13877;18.896;-99.222;2023-05-07T03:38:07;50.92;;;18.77;;
12412;SDS011;13877;18.896;-99.222;2023-05-07T03:40:35;40.92;;;17.77;;
12412;SDS011;13877;18.896;-99.222;2023-05-07T03:43:03;46.40;;;17.40;;
12412;SDS011;13877;18.896;-99.222;2023-05-07T03:45:33;46.55;;;16.42;;
12412;SDS011;13877;18.896;-99.222;2023-05-07T03:48:11;30.65;;;16.42;;
12412;SDS011;13877;18.896;-99.222;2023-05-07T03:50:39;34.05;;;16.77;;
12412;SDS011;13877;18.896;-99.222;2023-05-07T03:53:06;35.15;;;16.73;;
12412;SDS011;13877;18.896;-99.222;2023-05-07T03:55:37;42.05;;;17.50;;
12412;SDS011;13877;18.896;-99.222;2023-05-07T03:58:05;34.92;;;17.50;;
12412;SDS011;13877;18.896;-99.222;2023-05-07T04:00:32;38.20;;;17.80;;
12412;SDS011;13877;18.896;-99.222;2023-05-07T04:03:12;43.88;;;17.35;;
12412;SDS011;13877;18.896;-99.222;2023-05-07T04:05:40;38.65;;;18.40;;
12412;SDS011;13877;18.896;-99.222;2023-05-07T04:08:07;36.88;;;19.63;;
12412;SDS011;13877;18.896;-99.222;2023-05-07T04:10:38;37.38;;;19.38;;
12412;SDS011;13877;18.896;-99.222;2023-05-07T04:13:09;65.22;;;20.25;;
12412;SDS011;13877;18.896;-99.222;2023-05-07T04:15:37;43.88;;;21.92;;
12412;SDS011;13877;18.896;-99.222;2023-05-07T04:18:07;51.72;;;21.20;;
12412;SDS011;13877;18.896;-99.222;2023-05-07T04:20:35;44.92;;;21.02;;
12412;SDS011;13877;18.896;-99.222;2023-05-07T04:23:04;46.03;;;21.08;;
12412;SDS011;13877;18.896;-99.222;2023-05-07T04:25:31;43.42;;;21.60;;
12412;SDS011;13877;18.896;-99.222;2023-05-07T04:28:09;37.60;;;22.00;;
12412;SDS011;13877;18.896;-99.222;2023-05-07T04:30:38;44.05;;;21.17;;
12412;SDS011;13877;18.896;-99.222;2023-05-07T04:33:07;43.95;;;22.70;;
12412;SDS011;13877;18.896;-99.222;2023-05-07T04:35:36;41.78;;;21.85;;
12412;SDS011;13877;18.896;-99.222;2023-05-07T04:38:04;41.58;;;22.10;;
12412;SDS011;13877;18.896;-99.222;2023-05-07T04:40:32;43.53;;;22.98;;
12412;SDS011;13877;18.896;-99.222;2023-05-07T04:43:01;43.42;;;23.55;;
12412;SDS011;13877;18.896;-99.222;2023-05-07T04:45:31;39.40;;;23.13;;
12412;SDS011;13877;18.896;-99.222;2023-05-07T04:47:59;43.97;;;23.65;;
12412;SDS011;13877;18.896;-99.222;2023-05-07T04:50:25;43.90;;;23.73;;
12412;SDS011;13877;18.896;-99.222;2023-05-07T04:52:57;46.40;;;23.70;;
12412;SDS011;13877;18.896;-99.222;2023-05-07T04:55:24;43.33;;;24.70;;
12412;SDS011;13877;18.896;-99.222;2023-05-07T04:57:51;40.25;;;23.15;;
12412;SDS011;13877;18.896;-99.222;2023-05-07T05:00:19;43.42;;;24.40;;
12412;SDS011;13877;18.896;-99.222;2023-05-07T05:02:48;39.80;;;24.42;;
12412;SDS011;13877;18.896;-99.222;2023-05-07T05:05:19;46.05;;;25.40;;
12412;SDS011;13877;18.896;-99.222;2023-05-07T05:07:48;50.22;;;24.30;;
12412;SDS011;13877;18.896;-99.222;2023-05-07T05:10:15;38.47;;;22.77;;
12412;SDS011;13877;18.896;-99.222;2023-05-07T05:12:42;44.70;;;24.05;;
12412;SDS011;13877;18.896;-99.222;2023-05-07T05:15:13;51.75;;;25.75;;
12412;SDS011;13877;18.896;-99.222;2023-05-07T05:17:41;39.97;;;23.13;;
12412;SDS011;13877;18.896;-99.222;2023-05-07T05:20:08;41.80;;;24.42;;
12412;SDS011;13877;18.896;-99.222;2023-05-07T05:22:39;42.80;;;22.83;;
12412;SDS011;13877;18.896;-99.222;2023-05-07T05:25:08;50.70;;;22.90;;
12412;SDS011;13877;18.896;-99.222;2023-05-07T05:27:35;46.17;;;23.67;;
12412;SDS011;13877;18.896;-99.222;2023-05-07T05:30:02;40.80;;;22.77;;
12412;SDS011;13877;18.896;-99.222;2023-05-07T05:32:31;51.35;;;21.77;;
12412;SDS011;13877;18.896;-99.222;2023-05-07T05:34:59;49.30;;;22.10;;
12412;SDS011;13877;18.896;-99.222;2023-05-07T05:37:26;36.50;;;21.02;;
12412;SDS011;13877;18.896;-99.222;2023-05-07T05:39:54;42.95;;;21.85;;
12412;SDS011;13877;18.896;-99.222;2023-05-07T05:42:21;46.00;;;22.10;;
12412;SDS011;13877;18.896;-99.222;2023-05-07T05:44:48;39.67;;;21.58;;
12412;SDS011;13877;18.896;-99.222;2023-05-07T05:47:15;45.85;;;21.33;;
12412;SDS011;13877;18.896;-99.222;2023-05-07T05:49:43;41.17;;;19.85;;
12412;SDS011;13877;18.896;-99.222;2023-05-07T05:52:11;36.58;;;18.83;;
12412;SDS011;13877;18.896;-99.222;2023-05-07T05:54:40;38.15;;;18.13;;
12412;SDS011;13877;18.896;-99.222;2023-05-07T05:57:06;33.17;;;17.25;;
12412;SDS011;13877;18.896;-99.222;2023-05-07T05:59:34;32.50;;;17.75;;
12412;SDS011;13877;18.896;-99.222;2023-05-07T06:02:00;36.88;;;18.25;;
12412;SDS011;13877;18.896;-99.222;2023-05-07T06:04:28;33.65;;;18.95;;
12412;SDS011;13877;18.896;-99.222;2023-05-07T06:06:56;36.22;;;18.52;;
12412;SDS011;13877;18.896;-99.222;2023-05-07T06:09:25;40.58;;;19.15;;
12412;SDS011;13877;18.896;-99.222;2023-05-07T06:11:51;43.45;;;19.17;;
12412;SDS011;13877;18.896;-99.222;2023-05-07T06:14:19;38.03;;;18.58;;
12412;SDS011;13877;18.896;-99.222;2023-05-07T06:16:46;35.15;;;19.30;;
12412;SDS011;13877;18.896;-99.222;2023-05-07T06:19:13;38.35;;;18.73;;
12412;SDS011;13877;18.896;-99.222;2023-05-07T06:21:41;40.97;;;19.33;;
12412;SDS011;13877;18.896;-99.222;2023-05-07T06:24:08;60.30;;;20.02;;
12412;SDS011;13877;18.896;-99.222;2023-05-07T06:26:37;44.55;;;18.77;;
12412;SDS011;13877;18.896;-99.222;2023-05-07T06:29:05;45.70;;;18.65;;
12412;SDS011;13877;18.896;-99.222;2023-05-07T06:31:33;41.42;;;17.60;;
12412;SDS011;13877;18.896;-99.222;2023-05-07T06:34:06;47.15;;;18.40;;
12412;SDS011;13877;18.896;-99.222;2023-05-07T06:36:36;46.53;;;19.40;;
12412;SDS011;13877;18.896;-99.222;2023-05-07T06:39:23;46.58;;;18.85;;
12412;SDS011;13877;18.896;-99.222;2023-05-07T06:41:51;55.95;;;20.17;;
12412;SDS011;13877;18.896;-99.222;2023-05-07T06:44:25;38.70;;;18.60;;
12412;SDS011;13877;18.896;-99.222;2023-05-07T06:47:19;46.40;;;19.25;;
12412;SDS011;13877;18.896;-99.222;2023-05-07T06:52:18;45.55;;;21.20;;
12412;SDS011;13877;18.896;-99.222;2023-05-07T06:54:47;43.08;;;20.00;;
12412;SDS011;13877;18.896;-99.222;2023-05-07T06:57:17;45.67;;;21.25;;
12412;SDS011;13877;18.896;-99.222;2023-05-07T06:59:43;43.25;;;22.30;;
12412;SDS011;13877;18.896;-99.222;2023-05-07T07:02:11;52.90;;;21.88;;
12412;SDS011;13877;18.896;-99.222;2023-05-07T07:04:38;48.97;;;22.88;;
12412;SDS011;13877;18.896;-99.222;2023-05-07T07:07:09;56.05;;;24.30;;
12412;SDS011;13877;18.896;-99.222;2023-05-07T07:09:36;42.92;;;24.08;;
12412;SDS011;13877;18.896;-99.222;2023-05-07T07:12:04;41.88;;;24.48;;
12412;SDS011;13877;18.896;-99.222;2023-05-07T07:14:32;43.53;;;26.10;;
12412;SDS011;13877;18.896;-99.222;2023-05-07T07:17:00;46.90;;;25.05;;
12412;SDS011;13877;18.896;-99.222;2023-05-07T07:19:28;53.17;;;28.10;;
12412;SDS011;13877;18.896;-99.222;2023-05-07T07:21:56;47.33;;;26.20;;
12412;SDS011;13877;18.896;-99.222;2023-05-07T07:24:23;52.05;;;26.60;;
12412;SDS011;13877;18.896;-99.222;2023-05-07T07:26:54;46.60;;;25.77;;
12412;SDS011;13877;18.896;-99.222;2023-05-07T07:29:22;46.17;;;25.02;;
12412;SDS011;13877;18.896;-99.222;2023-05-07T07:31:52;46.63;;;26.15;;
12412;SDS011;13877;18.896;-99.222;2023-05-07T07:34:20;46.13;;;26.67;;
12412;SDS011;13877;18.896;-99.222;2023-05-07T07:36:48;57.42;;;27.13;;
12412;SDS011;13877;18.896;-99.222;2023-05-07T07:39:17;48.80;;;28.17;;
12412;SDS011;13877;18.896;-99.222;2023-05-07T07:41:46;49.78;;;27.63;;
12412;SDS011;13877;18.896;-99.222;2023-05-07T07:44:14;50.85;;;26.80;;
12412;SDS011;13877;18.896;-99.222;2023-05-07T07:46:41;51.05;;;28.15;;
12412;SDS011;13877;18.896;-99.222;2023-05-07T07:49:08;54.45;;;26.35;;
12412;SDS011;13877;18.896;-99.222;2023-05-07T07:51:35;50.85;;;28.92;;
12412;SDS011;13877;18.896;-99.222;2023-05-07T07:54:02;49.47;;;27.48;;
12412;SDS011;13877;18.896;-99.222;2023-05-07T07:56:32;58.83;;;27.60;;
12412;SDS011;13877;18.896;-99.222;2023-05-07T07:59:01;46.72;;;27.27;;
12412;SDS011;13877;18.896;-99.222;2023-05-07T08:01:29;50.92;;;28.25;;
12412;SDS011;13877;18.896;-99.222;2023-05-07T08:03:57;52.83;;;26.63;;
12412;SDS011;13877;18.896;-99.222;2023-05-07T08:06:32;56.38;;;27.88;;
12412;SDS011;13877;18.896;-99.222;2023-05-07T08:08:59;53.63;;;27.58;;
12412;SDS011;13877;18.896;-99.222;2023-05-07T08:11:27;46.67;;;28.50;;
12412;SDS011;13877;18.896;-99.222;2023-05-07T08:13:55;48.03;;;27.23;;
12412;SDS011;13877;18.896;-99.222;2023-05-07T08:16:23;49.40;;;28.05;;
12412;SDS011;13877;18.896;-99.222;2023-05-07T08:18:52;50.33;;;27.90;;
12412;SDS011;13877;18.896;-99.222;2023-05-07T08:21:19;50.47;;;28.33;;
12412;SDS011;13877;18.896;-99.222;2023-05-07T08:23:45;48.35;;;28.30;;
12412;SDS011;13877;18.896;-99.222;2023-05-07T08:26:13;58.30;;;28.75;;
12412;SDS011;13877;18.896;-99.222;2023-05-07T08:28:39;55.75;;;28.63;;
12412;SDS011;13877;18.896;-99.222;2023-05-07T08:31:07;52.53;;;28.75;;
12412;SDS011;13877;18.896;-99.222;2023-05-07T08:33:38;49.65;;;26.45;;
12412;SDS011;13877;18.896;-99.222;2023-05-07T08:36:05;52.80;;;27.30;;
12412;SDS011;13877;18.896;-99.222;2023-05-07T08:38:32;53.20;;;27.13;;
12412;SDS011;13877;18.896;-99.222;2023-05-07T08:41:00;48.92;;;28.02;;
12412;SDS011;13877;18.896;-99.222;2023-05-07T08:43:28;53.60;;;28.13;;
12412;SDS011;13877;18.896;-99.222;2023-05-07T08:45:59;45.77;;;27.67;;
12412;SDS011;13877;18.896;-99.222;2023-05-07T08:48:31;51.67;;;27.92;;
12412;SDS011;13877;18.896;-99.222;2023-05-07T08:51:12;61.53;;;27.95;;
12412;SDS011;13877;18.896;-99.222;2023-05-07T08:53:41;49.47;;;27.15;;
12412;SDS011;13877;18.896;-99.222;2023-05-07T08:56:11;49.78;;;28.83;;
12412;SDS011;13877;18.896;-99.222;2023-05-07T08:58:38;48.45;;;27.40;;
12412;SDS011;13877;18.896;-99.222;2023-05-07T09:01:09;48.78;;;27.75;;
12412;SDS011;13877;18.896;-99.222;2023-05-07T09:03:44;56.53;;;28.25;;
12412;SDS011;13877;18.896;-99.222;2023-05-07T09:06:12;51.97;;;27.40;;
12412;SDS011;13877;18.896;-99.222;2023-05-07T09:08:39;44.40;;;26.60;;
12412;SDS011;13877;18.896;-99.222;2023-05-07T09:11:07;48.20;;;27.42;;
12412;SDS011;13877;18.896;-99.222;2023-05-07T09:13:36;49.38;;;27.65;;
12412;SDS011;13877;18.896;-99.222;2023-05-07T09:16:13;50.88;;;26.35;;
12412;SDS011;13877;18.896;-99.222;2023-05-07T09:18:44;59.58;;;26.75;;
12412;SDS011;13877;18.896;-99.222;2023-05-07T09:21:17;46.95;;;27.00;;
12412;SDS011;13877;18.896;-99.222;2023-05-07T09:23:51;58.08;;;27.38;;
12412;SDS011;13877;18.896;-99.222;2023-05-07T09:26:23;55.45;;;27.02;;
12412;SDS011;13877;18.896;-99.222;2023-05-07T09:28:51;46.85;;;25.83;;
12412;SDS011;13877;18.896;-99.222;2023-05-07T09:31:19;57.88;;;25.38;;
12412;SDS011;13877;18.896;-99.222;2023-05-07T09:33:49;46.67;;;25.45;;
12412;SDS011;13877;18.896;-99.222;2023-05-07T09:36:18;44.97;;;24.30;;
12412;SDS011;13877;18.896;-99.222;2023-05-07T09:38:46;43.17;;;23.85;;
12412;SDS011;13877;18.896;-99.222;2023-05-07T09:41:13;43.92;;;23.95;;
12412;SDS011;13877;18.896;-99.222;2023-05-07T09:43:56;49.67;;;23.92;;
12412;SDS011;13877;18.896;-99.222;2023-05-07T09:46:29;46.63;;;24.45;;
12412;SDS011;13877;18.896;-99.222;2023-05-07T09:49:00;47.85;;;23.50;;
12412;SDS011;13877;18.896;-99.222;2023-05-07T09:54:07;43.15;;;23.40;;
12412;SDS011;13877;18.896;-99.222;2023-05-07T09:56:37;51.90;;;24.95;;
12412;SDS011;13877;18.896;-99.222;2023-05-07T09:59:08;49.35;;;24.58;;
12412;SDS011;13877;18.896;-99.222;2023-05-07T10:01:42;53.70;;;26.20;;
12412;SDS011;13877;18.896;-99.222;2023-05-07T10:04:12;55.00;;;26.25;;
12412;SDS011;13877;18.896;-99.222;2023-05-07T10:06:44;53.45;;;27.00;;
12412;SDS011;13877;18.896;-99.222;2023-05-07T10:09:12;63.90;;;27.93;;
12412;SDS011;13877;18.896;-99.222;2023-05-07T10:11:39;63.53;;;27.50;;
12412;SDS011;13877;18.896;-99.222;2023-05-07T10:14:07;55.58;;;26.02;;
12412;SDS011;13877;18.896;-99.222;2023-05-07T10:16:35;60.92;;;27.05;;
12412;SDS011;13877;18.896;-99.222;2023-05-07T10:19:08;60.33;;;26.48;;
12412;SDS011;13877;18.896;-99.222;2023-05-07T10:21:44;55.10;;;26.52;;
12412;SDS011;13877;18.896;-99.222;2023-05-07T10:24:25;57.30;;;25.33;;
12412;SDS011;13877;18.896;-99.222;2023-05-07T10:26:58;50.60;;;24.88;;
12412;SDS011;13877;18.896;-99.222;2023-05-07T10:31:55;56.22;;;23.48;;
12412;SDS011;13877;18.896;-99.222;2023-05-07T10:34:40;50.08;;;24.10;;
12412;SDS011;13877;18.896;-99.222;2023-05-07T10:37:10;56.28;;;25.25;;
12412;SDS011;13877;18.896;-99.222;2023-05-07T10:39:37;60.25;;;24.38;;
12412;SDS011;13877;18.896;-99.222;2023-05-07T10:42:11;49.53;;;23.85;;
12412;SDS011;13877;18.896;-99.222;2023-05-07T10:44:46;48.93;;;23.10;;
12412;SDS011;13877;18.896;-99.222;2023-05-07T10:47:20;47.25;;;23.77;;
12412;SDS011;13877;18.896;-99.222;2023-05-07T10:52:23;47.50;;;23.95;;
12412;SDS011;13877;18.896;-99.222;2023-05-07T11:01:12;44.08;;;23.05;;
12412;SDS011;13877;18.896;-99.222;2023-05-07T11:07:28;50.58;;;22.50;;
12412;SDS011;13877;18.896;-99.222;2023-05-07T11:15:13;44.38;;;21.38;;
12412;SDS011;13877;18.896;-99.222;2023-05-07T11:17:54;46.65;;;21.92;;
12412;SDS011;13877;18.896;-99.222;2023-05-07T11:29:14;41.15;;;21.20;;
12412;SDS011;13877;18.896;-99.222;2023-05-07T11:31:42;47.65;;;22.02;;
12412;SDS011;13877;18.896;-99.222;2023-05-07T11:34:11;45.95;;;21.95;;
12412;SDS011;13877;18.896;-99.222;2023-05-07T11:36:41;42.15;;;20.65;;
12412;SDS011;13877;18.896;-99.222;2023-05-07T11:39:31;49.05;;;21.50;;
12412;SDS011;13877;18.896;-99.222;2023-05-07T11:41:59;42.72;;;22.13;;
12412;SDS011;13877;18.896;-99.222;2023-05-07T11:44:46;42.97;;;21.15;;
12412;SDS011;13877;18.896;-99.222;2023-05-07T11:47:17;46.63;;;21.77;;
12412;SDS011;13877;18.896;-99.222;2023-05-07T11:49:52;41.33;;;22.80;;
12412;SDS011;13877;18.896;-99.222;2023-05-07T11:52:20;43.30;;;21.95;;
12412;SDS011;13877;18.896;-99.222;2023-05-07T11:54:52;39.47;;;21.00;;
12412;SDS011;13877;18.896;-99.222;2023-05-07T11:57:21;47.03;;;21.45;;
12412;SDS011;13877;18.896;-99.222;2023-05-07T11:59:52;41.30;;;20.77;;
12412;SDS011;13877;18.896;-99.222;2023-05-07T12:02:23;43.92;;;22.85;;
12412;SDS011;13877;18.896;-99.222;2023-05-07T12:04:50;50.35;;;21.90;;
12412;SDS011;13877;18.896;-99.222;2023-05-07T12:07:18;46.60;;;20.88;;
12412;SDS011;13877;18.896;-99.222;2023-05-07T12:09:45;45.40;;;21.95;;
12412;SDS011;13877;18.896;-99.222;2023-05-07T12:12:13;37.70;;;20.92;;
12412;SDS011;13877;18.896;-99.222;2023-05-07T12:14:42;36.97;;;20.73;;
12412;SDS011;13877;18.896;-99.222;2023-05-07T12:17:10;44.10;;;20.75;;
12412;SDS011;13877;18.896;-99.222;2023-05-07T12:19:39;43.30;;;20.70;;
12412;SDS011;13877;18.896;-99.222;2023-05-07T12:22:07;45.60;;;21.35;;
12412;SDS011;13877;18.896;-99.222;2023-05-07T12:24:44;42.92;;;21.00;;
12412;SDS011;13877;18.896;-99.222;2023-05-07T12:27:22;41.25;;;20.67;;
12412;SDS011;13877;18.896;-99.222;2023-05-07T12:29:50;44.28;;;20.77;;
12412;SDS011;13877;18.896;-99.222;2023-05-07T12:32:18;42.85;;;20.58;;
12412;SDS011;13877;18.896;-99.222;2023-05-07T12:34:46;42.13;;;21.88;;
12412;SDS011;13877;18.896;-99.222;2023-05-07T12:37:23;46.13;;;20.67;;
12412;SDS011;13877;18.896;-99.222;2023-05-07T12:40:10;53.95;;;22.55;;
12412;SDS011;13877;18.896;-99.222;2023-05-07T12:42:38;48.95;;;23.05;;
12412;SDS011;13877;18.896;-99.222;2023-05-07T12:45:12;52.15;;;21.48;;
12412;SDS011;13877;18.896;-99.222;2023-05-07T12:47:46;42.40;;;22.20;;
12412;SDS011;13877;18.896;-99.222;2023-05-07T12:50:13;42.40;;;20.85;;
12412;SDS011;13877;18.896;-99.222;2023-05-07T12:52:41;49.05;;;21.58;;
12412;SDS011;13877;18.896;-99.222;2023-05-07T12:55:16;39.53;;;20.52;;
12412;SDS011;13877;18.896;-99.222;2023-05-07T12:57:45;49.42;;;20.58;;
12412;SDS011;13877;18.896;-99.222;2023-05-07T13:00:16;39.22;;;18.52;;
12412;SDS011;13877;18.896;-99.222;2023-05-07T13:02:43;42.35;;;18.73;;
12412;SDS011;13877;18.896;-99.222;2023-05-07T13:05:11;39.60;;;18.83;;
12412;SDS011;13877;18.896;-99.222;2023-05-07T13:07:38;38.28;;;19.17;;
12412;SDS011;13877;18.896;-99.222;2023-05-07T13:10:06;43.05;;;18.63;;
12412;SDS011;13877;18.896;-99.222;2023-05-07T13:12:33;51.55;;;19.92;;
12412;SDS011;13877;18.896;-99.222;2023-05-07T13:15:00;40.75;;;20.17;;
12412;SDS011;13877;18.896;-99.222;2023-05-07T13:17:27;36.20;;;19.42;;
12412;SDS011;13877;18.896;-99.222;2023-05-07T13:19:56;39.72;;;20.85;;
12412;SDS011;13877;18.896;-99.222;2023-05-07T13:22:23;43.95;;;20.10;;
12412;SDS011;13877;18.896;-99.222;2023-05-07T13:24:50;41.78;;;20.45;;
12412;SDS011;13877;18.896;-99.222;2023-05-07T13:27:17;44.75;;;21.40;;
12412;SDS011;13877;18.896;-99.222;2023-05-07T13:29:45;41.70;;;21.48;;
12412;SDS011;13877;18.896;-99.222;2023-05-07T13:32:12;41.67;;;22.02;;
12412;SDS011;13877;18.896;-99.222;2023-05-07T13:34:39;42.13;;;22.02;;
12412;SDS011;13877;18.896;-99.222;2023-05-07T13:37:06;43.63;;;21.00;;
12412;SDS011;13877;18.896;-99.222;2023-05-07T13:39:33;50.10;;;25.30;;
12412;SDS011;13877;18.896;-99.222;2023-05-07T13:42:00;48.47;;;22.70;;
12412;SDS011;13877;18.896;-99.222;2023-05-07T13:44:27;48.28;;;23.38;;
12412;SDS011;13877;18.896;-99.222;2023-05-07T13:46:54;52.50;;;24.98;;
12412;SDS011;13877;18.896;-99.222;2023-05-07T13:49:21;58.90;;;25.15;;
12412;SDS011;13877;18.896;-99.222;2023-05-07T13:51:48;48.65;;;24.52;;
12412;SDS011;13877;18.896;-99.222;2023-05-07T13:54:15;54.50;;;25.88;;
12412;SDS011;13877;18.896;-99.222;2023-05-07T13:56:42;52.15;;;26.30;;
12412;SDS011;13877;18.896;-99.222;2023-05-07T13:59:09;48.15;;;27.23;;
12412;SDS011;13877;18.896;-99.222;2023-05-07T14:01:36;54.17;;;27.05;;
12412;SDS011;13877;18.896;-99.222;2023-05-07T14:04:03;47.85;;;26.38;;
12412;SDS011;13877;18.896;-99.222;2023-05-07T14:06:30;50.63;;;28.20;;
12412;SDS011;13877;18.896;-99.222;2023-05-07T14:08:56;43.80;;;26.63;;
12412;SDS011;13877;18.896;-99.222;2023-05-07T14:11:23;46.47;;;26.63;;
12412;SDS011;13877;18.896;-99.222;2023-05-07T14:13:51;47.53;;;27.45;;
12412;SDS011;13877;18.896;-99.222;2023-05-07T14:16:17;46.20;;;26.77;;
12412;SDS011;13877;18.896;-99.222;2023-05-07T14:18:44;48.95;;;25.75;;
12412;SDS011;13877;18.896;-99.222;2023-05-07T14:21:11;43.92;;;25.40;;
12412;SDS011;13877;18.896;-99.222;2023-05-07T14:23:38;38.25;;;23.42;;
12412;SDS011;13877;18.896;-99.222;2023-05-07T14:26:05;42.35;;;23.00;;
12412;SDS011;13877;18.896;-99.222;2023-05-07T14:28:32;45.45;;;23.40;;
12412;SDS011;13877;18.896;-99.222;2023-05-07T14:31:00;36.50;;;23.45;;
12412;SDS011;13877;18.896;-99.222;2023-05-07T14:33:29;41.75;;;24.88;;
12412;SDS011;13877;18.896;-99.222;2023-05-07T14:35:56;47.97;;;26.13;;
12412;SDS011;13877;18.896;-99.222;2023-05-07T14:38:23;49.40;;;25.60;;
12412;SDS011;13877;18.896;-99.222;2023-05-07T14:40:49;44.15;;;24.65;;